Time;durP1;ratioP1;P1;durP2;ratioP2;P2;SDS_P1;SDS_P2;PMS_P1;PMS_P2;Temp;Humidity;BMP_temperature;BMP_pressure;BME280_temperature;BME280_humidity;BME280_pressure;Samples;Min_cycle;Max_cycle;Signal;HPM_P1;HPM_P2
2023/05/03 03:58:52;;;;;;;10.82;9.73;;;;;;;15.97;100.00;100820.88;5604280;31;131626;-56
2023/05/03 04:01:55;;;;;;;11.43;10.23;;;;;;;15.97;100.00;100820.88;5583747;32;33114;-56
2023/05/03 04:04:57;;;;;;;11.27;9.93;;;;;;;15.56;100.00;100821.72;5583492;31;34013;-57
2023/05/03 04:08:00;;;;;;;11.32;10.13;;;;;;;15.60;100.00;100828.16;5582274;31;33065;-58
2023/05/03 04:11:03;;;;;;;10.40;9.23;;;;;;;15.66;100.00;100829.69;5565955;32;34402;-55
2023/05/03 04:14:07;;;;;;;10.20;9.20;;;;;;;15.67;100.00;100830.47;5563788;32;34085;-55
2023/05/03 04:17:10;;;;;;;9.35;8.45;;;;;;;15.71;100.00;100826.84;5564203;32;33197;-54
2023/05/03 04:20:12;;;;;;;9.77;8.77;;;;;;;15.77;100.00;100832.16;5563717;32;33361;-53
2023/05/03 04:23:15;;;;;;;9.55;8.18;;;;;;;15.78;100.00;100833.75;5564005;32;33498;-55
2023/05/03 04:26:17;;;;;;;8.90;8.00;;;;;;;15.81;100.00;100830.44;5564007;32;34401;-54
2023/05/03 04:29:34;;;;;;;8.98;7.93;;;;;;;15.80;100.00;100837.75;5563611;32;33155;-55
2023/05/03 04:32:39;;;;;;;9.40;8.43;;;;;;;15.85;100.00;100834.13;5563980;32;33709;-53
2023/05/03 04:35:42;;;;;;;12.07;7.78;;;;;;;15.79;97.90;100840.75;5563668;32;34451;-54
2023/05/03 04:38:46;;;;;;;8.95;8.05;;;;;;;15.71;97.60;100845.78;5563801;32;33569;-54
2023/05/03 04:41:49;;;;;;;9.20;7.93;;;;;;;15.79;98.13;100854.25;5563575;32;34310;-54
2023/05/03 04:44:51;;;;;;;11.52;8.57;;;;;;;15.81;97.85;100852.06;5563449;32;33592;-54
2023/05/03 04:47:54;;;;;;;10.00;7.90;;;;;;;15.79;99.39;100848.84;5563727;32;33094;-54
2023/05/03 04:50:57;;;;;;;9.95;7.87;;;;;;;15.88;93.88;100853.25;5563407;32;33710;-55
2023/05/03 04:54:00;;;;;;;9.52;7.87;;;;;;;15.84;99.64;100857.66;5563489;32;33644;-55
2023/05/03 04:57:02;;;;;;;9.68;7.82;;;;;;;15.86;95.60;100866.28;5576399;31;33532;-54
2023/05/03 05:00:10;;;;;;;8.90;8.00;;;;;;;15.90;97.17;100859.16;5578077;31;34338;-55
2023/05/03 05:03:13;;;;;;;11.40;7.78;;;;;;;15.89;96.22;100868.38;5582572;32;34373;-55
2023/05/03 05:06:15;;;;;;;8.27;7.47;;;;;;;16.03;95.41;100867.56;5583343;31;34356;-54
2023/05/03 05:09:23;;;;;;;10.25;7.65;;;;;;;16.15;92.58;100871.28;5570777;31;33358;-55
2023/05/03 05:12:26;;;;;;;9.20;7.75;;;;;;;16.03;94.46;100873.75;5569557;32;33938;-54
2023/05/03 05:15:28;;;;;;;10.15;7.55;;;;;;;16.07;98.12;100877.44;5570035;32;33705;-54
2023/05/03 05:18:31;;;;;;;9.85;8.25;;;;;;;16.06;96.88;100872.31;5569569;32;34209;-54
2023/05/03 05:21:35;;;;;;;13.20;7.85;;;;;;;16.03;96.69;100876.47;5570033;31;33322;-55
2023/05/03 05:24:37;;;;;;;9.88;7.62;;;;;;;16.17;94.18;100874.50;5570075;32;34388;-54
2023/05/03 05:27:40;;;;;;;11.45;7.60;;;;;;;16.19;94.46;100868.78;5569219;32;33683;-54
2023/05/03 05:30:43;;;;;;;10.15;7.22;;;;;;;16.11;93.51;100870.31;5570120;32;33562;-54
2023/05/03 05:33:46;;;;;;;8.70;6.97;;;;;;;16.16;94.87;100878.31;5569593;31;32349;-54
2023/05/03 05:36:49;;;;;;;9.50;7.22;;;;;;;16.16;92.66;100869.41;5569244;32;34360;-54
2023/05/03 05:39:52;;;;;;;7.75;6.95;;;;;;;16.26;90.62;100876.47;5569826;31;33501;-55
2023/05/03 05:42:55;;;;;;;10.43;7.10;;;;;;;16.30;91.88;100883.69;5569383;31;33516;-54
2023/05/03 05:45:59;;;;;;;8.15;6.62;;;;;;;16.28;89.27;100879.69;5569330;31;34394;-54
2023/05/03 05:49:03;;;;;;;7.82;7.03;;;;;;;16.30;90.31;100875.56;5569361;32;33674;-53
2023/05/03 05:52:06;;;;;;;11.48;7.03;;;;;;;16.37;89.98;100888.66;5569930;32;33626;-55
2023/05/03 05:55:12;;;;;;;7.80;6.45;;;;;;;16.38;90.02;100891.06;5569285;31;33375;-55
2023/05/03 05:58:15;;;;;;;11.70;7.32;;;;;;;16.38;90.36;100896.47;5569055;32;34245;-55
2023/05/03 06:01:18;;;;;;;8.18;6.60;;;;;;;16.52;99.18;100904.53;5569041;32;34487;-55
2023/05/03 06:04:20;;;;;;;9.40;6.35;;;;;;;16.56;91.45;100912.84;5569684;31;33409;-55
2023/05/03 06:07:24;;;;;;;7.97;7.00;;;;;;;16.57;87.94;100922.56;5569571;32;33337;-55
2023/05/03 06:10:27;;;;;;;11.55;7.00;;;;;;;16.56;93.77;100919.06;5568416;31;33587;-55
2023/05/03 06:13:32;;;;;;;8.18;6.60;;;;;;;16.56;92.28;100919.06;5568742;32;34393;-54
2023/05/03 06:16:36;;;;;;;8.45;6.05;;;;;;;16.51;91.75;100930.00;5566221;32;33711;-55
2023/05/03 06:19:39;;;;;;;8.57;6.80;;;;;;;16.48;89.62;100925.19;5568241;32;33286;-55
2023/05/03 06:22:43;;;;;;;6.97;5.90;;;;;;;16.52;90.14;100928.87;5569353;32;34274;-56
2023/05/03 06:25:46;;;;;;;7.78;6.97;;;;;;;16.69;87.24;100936.38;5569192;31;32710;-55
2023/05/03 06:28:51;;;;;;;10.32;6.68;;;;;;;16.80;97.74;100928.81;5569090;31;33259;-54
2023/05/03 06:31:54;;;;;;;7.32;6.50;;;;;;;16.84;85.61;100948.75;5569189;31;34664;-55
2023/05/03 06:35:00;;;;;;;8.80;6.22;;;;;;;16.83;86.31;100944.44;5568819;32;33740;-54
2023/05/03 06:38:03;;;;;;;7.97;6.28;;;;;;;16.94;85.35;100951.19;5568524;32;33624;-55
2023/05/03 06:41:05;;;;;;;8.00;6.57;;;;;;;17.02;82.72;100955.06;5563828;32;33690;-55
2023/05/03 06:44:07;;;;;;;8.55;6.30;;;;;;;17.15;93.86;100951.47;5568770;32;32079;-54
2023/05/03 06:47:10;;;;;;;10.93;7.20;;;;;;;17.17;84.10;100957.41;5569184;32;34261;-55
2023/05/03 06:50:12;;;;;;;6.95;6.00;;;;;;;17.22;85.25;100957.28;5567956;32;33605;-55
2023/05/03 06:53:16;;;;;;;9.75;6.03;;;;;;;17.30;79.43;100950.31;5567562;32;33137;-55
2023/05/03 06:56:19;;;;;;;6.87;5.37;;;;;;;17.37;81.73;100956.88;5567837;32;33771;-55
2023/05/03 06:59:21;;;;;;;6.62;5.45;;;;;;;17.47;79.19;100960.41;5569128;32;34191;-55
2023/05/03 07:02:25;;;;;;;7.72;6.25;;;;;;;17.55;76.01;100952.34;5568430;32;33979;-54
2023/05/03 07:05:28;;;;;;;9.65;7.30;;;;;;;17.61;80.82;100951.09;5568209;32;34229;-56
2023/05/03 07:08:30;;;;;;;8.77;7.47;;;;;;;17.61;80.35;100955.69;5566004;32;33520;-56
2023/05/03 07:11:36;;;;;;;10.13;6.22;;;;;;;17.77;87.43;100948.75;5567278;32;33203;-54
2023/05/03 07:14:39;;;;;;;8.57;6.30;;;;;;;17.99;79.08;100942.44;5565905;32;34174;-54
2023/05/03 07:17:42;;;;;;;8.38;6.20;;;;;;;17.90;77.28;100947.03;5567071;32;33714;-56
2023/05/03 07:20:45;;;;;;;8.93;6.62;;;;;;;17.97;77.04;100943.88;5568279;32;34201;-54
2023/05/03 07:23:47;;;;;;;9.05;7.03;;;;;;;17.95;79.39;100937.97;5566923;32;33988;-54
2023/05/03 07:26:49;;;;;;;7.97;6.22;;;;;;;17.86;78.09;100942.56;5567981;32;34332;-55
2023/05/03 07:29:52;;;;;;;10.88;6.60;;;;;;;17.88;75.71;100943.88;5567882;32;33595;-56
2023/05/03 07:32:54;;;;;;;9.18;7.15;;;;;;;18.03;75.70;100948.03;5566985;32;34259;-55
2023/05/03 07:35:56;;;;;;;13.60;7.43;;;;;;;18.05;75.58;100943.88;5567088;32;33728;-54
2023/05/03 07:38:59;;;;;;;10.90;7.22;;;;;;;17.92;74.83;100950.25;5565082;32;33674;-54
2023/05/03 07:42:01;;;;;;;7.25;6.45;;;;;;;17.92;81.74;100949.44;5568532;32;33688;-55
2023/05/03 07:45:04;;;;;;;12.10;6.80;;;;;;;18.08;86.71;100956.03;5565895;32;33719;-55
2023/05/03 07:48:07;;;;;;;9.85;6.85;;;;;;;18.08;76.87;100951.41;5568287;32;33684;-55
2023/05/03 07:51:09;;;;;;;10.40;6.97;;;;;;;18.04;74.82;100953.13;5568613;32;33726;-54
2023/05/03 07:54:12;;;;;;;8.23;6.62;;;;;;;18.11;74.86;100952.66;5568386;32;33530;-55
2023/05/03 07:57:15;;;;;;;9.32;7.03;;;;;;;18.12;74.13;100954.28;5564868;32;33562;-54
2023/05/03 08:00:17;;;;;;;7.37;6.55;;;;;;;18.15;78.86;100961.78;5568018;32;33708;-55
2023/05/03 08:03:20;;;;;;;13.27;7.15;;;;;;;18.31;78.83;100960.22;5567547;32;34241;-55
2023/05/03 08:06:23;;;;;;;7.57;6.55;;;;;;;18.45;75.20;100953.84;5567417;32;33575;-54
2023/05/03 08:09:27;;;;;;;9.18;6.70;;;;;;;18.33;72.84;100962.59;5568172;32;34234;-54
2023/05/03 08:12:29;;;;;;;9.20;6.85;;;;;;;18.30;73.87;100961.31;5565956;32;33163;-55
2023/05/03 08:15:34;;;;;;;10.20;5.90;;;;;;;18.44;79.31;100963.91;5548284;32;33687;-55
2023/05/03 08:18:37;;;;;;;9.30;6.60;;;;;;;18.42;76.15;100973.47;5548145;32;33599;-55
2023/05/03 08:21:41;;;;;;;7.75;6.43;;;;;;;18.59;73.11;100968.03;5554642;32;33615;-56
2023/05/03 08:24:44;;;;;;;9.40;6.35;;;;;;;18.56;72.85;100968.69;5565656;32;33540;-55
2023/05/03 08:27:46;;;;;;;8.30;5.93;;;;;;;18.63;76.39;100965.47;5566325;32;33664;-54
2023/05/03 08:30:48;;;;;;;7.40;6.22;;;;;;;18.71;76.17;100970.13;5567120;32;33735;-55
2023/05/03 08:33:51;;;;;;;7.72;6.10;;;;;;;18.71;70.34;100967.41;5566206;32;34257;-55
2023/05/03 08:36:53;;;;;;;11.12;6.78;;;;;;;18.80;71.75;100972.84;5564730;32;33633;-56
2023/05/03 08:39:56;;;;;;;12.65;6.93;;;;;;;18.77;69.25;100961.53;5562410;32;34265;-54
2023/05/03 08:43:03;;;;;;;13.93;6.72;;;;;;;18.79;70.87;100974.78;5566543;32;33582;-55
2023/05/03 08:46:10;;;;;;;7.75;6.47;;;;;;;18.58;68.62;100982.75;5570070;32;33541;-55
2023/05/03 08:49:13;;;;;;;10.35;7.25;;;;;;;18.44;68.54;100984.78;5569571;32;34244;-54
2023/05/03 08:52:17;;;;;;;10.50;6.97;;;;;;;18.33;68.76;100989.75;5569180;32;33760;-55
2023/05/03 08:55:19;;;;;;;10.77;7.97;;;;;;;18.39;70.23;100976.81;5569865;32;34311;-55
2023/05/03 08:58:23;;;;;;;9.95;7.78;;;;;;;18.43;70.08;100985.91;5569674;32;33608;-55
2023/05/03 09:01:25;;;;;;;10.40;7.22;;;;;;;18.42;70.01;100982.41;5569493;32;34383;-54
2023/05/03 09:04:33;;;;;;;16.15;8.05;;;;;;;18.50;72.19;100973.47;5569452;32;33783;-55
2023/05/03 09:07:36;;;;;;;9.90;7.72;;;;;;;18.59;70.97;100981.63;5570373;32;33773;-56
2023/05/03 09:10:41;;;;;;;10.70;7.18;;;;;;;18.69;71.98;100981.28;5568837;32;34375;-56
2023/05/03 09:13:43;;;;;;;22.20;8.90;;;;;;;18.74;73.65;100977.62;5560263;32;33821;-56
2023/05/03 09:16:46;;;;;;;10.35;7.85;;;;;;;18.82;70.43;100976.84;5563835;32;33683;-56
2023/05/03 09:19:51;;;;;;;12.55;8.25;;;;;;;19.06;73.72;100973.63;5565151;32;33670;-56
2023/05/03 09:22:54;;;;;;;10.45;8.75;;;;;;;19.17;71.50;100971.34;5568468;32;34335;-56
2023/05/03 09:25:59;;;;;;;9.95;8.27;;;;;;;19.08;68.31;100965.16;5565908;32;34344;-56
2023/05/03 09:29:03;;;;;;;9.35;8.43;;;;;;;19.07;69.48;100966.25;5568057;32;33696;-56
2023/05/03 09:32:07;;;;;;;10.02;7.85;;;;;;;19.20;69.70;100968.81;5564585;32;33606;-56
2023/05/03 09:35:10;;;;;;;9.98;8.10;;;;;;;19.27;69.42;100970.19;5567236;32;32198;-56
2023/05/03 09:38:26;;;;;;;30.08;8.90;;;;;;;19.32;67.67;100973.56;5567674;32;34109;-56
2023/05/03 09:41:30;;;;;;;13.45;8.98;;;;;;;19.38;70.13;100968.75;5560081;32;33639;-56
2023/05/03 09:44:47;;;;;;;8.63;7.80;;;;;;;19.36;67.57;100969.06;5549292;32;34342;-56
2023/05/03 09:47:54;;;;;;;13.15;7.28;;;;;;;19.39;67.58;100965.69;5549085;32;34284;-56
2023/05/03 09:50:57;;;;;;;9.48;7.93;;;;;;;19.43;72.83;100963.13;5557015;32;33663;-56
2023/05/03 09:54:00;;;;;;;10.23;8.70;;;;;;;19.51;68.47;100972.37;5560020;32;34868;-56
2023/05/03 09:57:03;;;;;;;11.65;8.65;;;;;;;19.39;66.98;100967.62;5566537;32;34379;-56
2023/05/03 10:00:07;;;;;;;9.38;7.68;;;;;;;19.40;66.48;100961.88;5559040;32;33563;-56
2023/05/03 10:03:23;;;;;;;7.90;7.05;;;;;;;19.37;67.31;100972.56;5555040;32;34010;-56
2023/05/03 10:06:40;;;;;;;10.80;7.03;;;;;;;19.56;70.98;100964.03;5554303;32;34008;-56
2023/05/03 10:09:44;;;;;;;8.23;7.22;;;;;;;19.61;67.16;100964.66;5564078;31;33931;-56
2023/05/03 10:12:47;;;;;;;8.70;7.60;;;;;;;19.57;65.55;100966.44;5552170;32;33933;-56
2023/05/03 10:16:02;;;;;;;8.55;6.37;;;;;;;19.56;67.29;100961.31;5548901;32;34115;-56
2023/05/03 10:19:39;;;;;;;7.53;6.17;;;;;;;19.62;66.51;100958.06;5549107;32;34291;-56
2023/05/03 10:23:04;;;;;;;9.23;7.07;;;;;;;19.60;67.39;100954.91;5548178;32;34414;-56
2023/05/03 10:26:08;;;;;;;8.45;6.65;;;;;;;19.62;67.65;100960.81;5549026;32;33822;-56
2023/05/03 10:29:37;;;;;;;8.20;6.62;;;;;;;19.71;68.60;100961.59;5553542;32;34380;-56
2023/05/03 10:32:41;;;;;;;8.18;6.75;;;;;;;19.58;68.58;100965.31;5546971;32;33637;-56
2023/05/03 10:35:52;;;;;;;10.68;7.15;;;;;;;19.59;67.15;100949.78;5549002;32;33850;-56
2023/05/03 10:38:56;;;;;;;9.50;6.32;;;;;;;19.58;66.95;100953.62;5561966;32;34400;-56
2023/05/03 10:42:02;;;;;;;10.48;6.53;;;;;;;19.57;70.10;100952.00;5562944;32;33626;-56
2023/05/03 10:45:07;;;;;;;7.55;6.25;;;;;;;19.48;68.24;100952.06;5563572;32;34197;-56
2023/05/03 10:48:10;;;;;;;;;;;;;;;19.56;68.91;100951.22;5566032;32;33465;-56
2023/05/03 10:51:35;;;;;;;10.43;6.82;;;;;;;19.43;68.36;100944.88;5567433;32;33890;-56
2023/05/03 10:54:38;;;;;;;7.43;5.78;;;;;;;19.56;70.37;100940.34;5549065;31;35013;-56
2023/05/03 10:57:42;;;;;;;11.10;6.32;;;;;;;19.57;70.57;100950.13;5562710;32;33424;-56
2023/05/03 11:00:46;;;;;;;10.05;6.32;;;;;;;19.59;68.74;100947.06;5567559;32;33974;-56
2023/05/03 11:03:54;;;;;;;8.02;6.22;;;;;;;19.54;68.92;100941.81;5566144;32;34362;-56
2023/05/03 11:06:57;;;;;;;9.77;6.70;;;;;;;19.53;68.58;100946.44;5559800;32;35199;-56
2023/05/03 11:10:00;;;;;;;19.50;7.47;;;;;;;19.57;70.22;100943.84;5559810;32;34261;-56
2023/05/03 11:13:02;;;;;;;8.57;6.35;;;;;;;19.57;65.58;100941.13;5567141;32;34382;-56
2023/05/03 11:16:05;;;;;;;8.95;6.10;;;;;;;19.57;70.72;100941.97;5548348;32;33713;-56
2023/05/03 11:19:08;;;;;;;7.72;6.05;;;;;;;19.56;69.98;100945.00;5548105;32;33598;-56
2023/05/03 11:22:11;;;;;;;13.25;6.87;;;;;;;19.55;72.13;100946.13;5550717;32;33295;-56
2023/05/03 11:25:14;;;;;;;7.12;6.43;;;;;;;19.58;65.59;100946.25;5567375;32;33563;-57
2023/05/03 11:28:16;;;;;;;7.75;6.28;;;;;;;19.53;67.13;100945.63;5564776;32;33718;-57
2023/05/03 11:31:20;;;;;;;9.80;6.78;;;;;;;19.52;66.16;100941.34;5549516;32;34297;-56
2023/05/03 11:34:23;;;;;;;6.85;6.15;;;;;;;19.39;68.31;100945.87;5562718;32;34384;-57
2023/05/03 11:37:25;;;;;;;7.90;6.60;;;;;;;19.44;68.06;100942.97;5556963;32;33626;-56
2023/05/03 11:40:28;;;;;;;8.80;6.60;;;;;;;19.45;64.73;100933.69;5556455;32;34524;-57
2023/05/03 11:43:31;;;;;;;7.50;6.57;;;;;;;19.39;66.15;100938.50;5566166;32;34341;-57
2023/05/03 11:46:37;;;;;;;8.77;6.40;;;;;;;19.32;66.89;100935.50;5564000;32;33977;-57
2023/05/03 11:49:50;;;;;;;9.30;7.43;;;;;;;19.34;66.64;100941.41;5562836;32;34263;-57
2023/05/03 11:52:52;;;;;;;8.60;6.47;;;;;;;19.42;65.41;100935.13;5563107;32;34001;-56
2023/05/03 11:55:55;;;;;;;8.48;6.70;;;;;;;19.40;66.42;100936.56;5550735;32;33171;-57
2023/05/03 11:58:58;;;;;;;7.50;6.45;;;;;;;19.34;67.68;100933.25;5559820;32;33709;-57
2023/05/03 12:02:03;;;;;;;9.38;6.43;;;;;;;19.38;69.56;100930.69;5547902;32;33729;-56
2023/05/03 12:05:07;;;;;;;7.70;6.47;;;;;;;19.29;65.99;100933.41;5555003;32;33816;-56
2023/05/03 12:08:11;;;;;;;10.83;7.00;;;;;;;19.34;66.03;100941.41;5550885;32;33617;-57
2023/05/03 12:11:16;;;;;;;9.48;7.10;;;;;;;19.40;66.49;100931.97;5564796;32;33265;-57
2023/05/03 12:14:20;;;;;;;7.95;5.68;;;;;;;19.41;65.77;100938.19;5561386;32;34260;-56
2023/05/03 12:17:33;;;;;;;8.35;6.05;;;;;;;19.43;69.60;100944.88;5565745;32;33799;-57
2023/05/03 12:20:39;;;;;;;9.75;6.03;;;;;;;19.45;67.87;100931.75;5565550;32;33688;-56
2023/05/03 12:23:45;;;;;;;10.35;6.10;;;;;;;19.33;66.79;100931.63;5568665;32;33496;-57
2023/05/03 12:26:48;;;;;;;7.50;6.03;;;;;;;19.28;66.44;100933.75;5567182;32;33920;-56
2023/05/03 12:29:54;;;;;;;6.20;5.57;;;;;;;19.30;67.75;100923.34;5566158;32;34356;-56
2023/05/03 12:32:59;;;;;;;7.55;6.10;;;;;;;19.37;70.16;100918.19;5567917;32;34331;-57
2023/05/03 12:36:06;;;;;;;8.27;6.35;;;;;;;19.45;66.71;100918.16;5564837;32;34318;-56
2023/05/03 12:39:11;;;;;;;7.30;5.90;;;;;;;19.41;66.49;100919.16;5568785;32;33663;-56
2023/05/03 12:42:17;;;;;;;7.47;5.82;;;;;;;19.36;64.75;100919.31;5565546;32;33300;-56
2023/05/03 12:45:25;;;;;;;;;;;;;;;19.25;65.77;100916.19;5568865;32;33621;-57
2023/05/03 12:48:29;;;;;;;6.57;5.97;;;;;;;19.18;67.08;100916.69;5569605;32;34296;-56
2023/05/03 12:51:34;;;;;;;9.02;5.85;;;;;;;19.25;67.73;100913.47;5566481;32;33683;-56
2023/05/03 12:54:37;;;;;;;8.18;6.12;;;;;;;19.25;67.51;100903.38;5569324;32;33686;-56
2023/05/03 12:57:43;;;;;;;8.45;5.85;;;;;;;19.27;66.78;100896.81;5568074;32;34218;-56
2023/05/03 13:00:49;;;;;;;7.32;5.85;;;;;;;19.32;70.24;100899.34;5569271;32;33304;-56
2023/05/03 13:04:12;;;;;;;8.15;6.37;;;;;;;19.38;66.93;100898.06;5568749;32;34589;-56
2023/05/03 13:07:17;;;;;;;7.10;5.50;;;;;;;19.37;67.86;100899.97;5569442;32;33622;-56
2023/05/03 13:10:29;;;;;;;7.85;6.43;;;;;;;19.38;67.08;100901.56;5569125;31;33632;-56
2023/05/03 13:13:32;;;;;;;10.57;5.82;;;;;;;19.38;68.27;100904.28;5567839;32;33753;-56
2023/05/03 13:16:37;;;;;;;9.05;6.70;;;;;;;19.35;70.14;100899.50;5568725;32;34370;-56
2023/05/03 13:19:40;;;;;;;9.38;6.45;;;;;;;19.40;68.54;100902.06;5568533;32;33929;-56
2023/05/03 13:22:42;;;;;;;7.25;5.97;;;;;;;19.43;71.60;100895.13;5567491;32;33747;-56
2023/05/03 13:25:46;;;;;;;7.25;5.90;;;;;;;19.44;69.27;100894.03;5565322;32;33944;-57
2023/05/03 13:28:48;;;;;;;8.07;5.70;;;;;;;19.50;68.68;100898.13;5568611;31;33610;-56
2023/05/03 13:31:51;;;;;;;10.45;6.57;;;;;;;19.33;69.25;100896.31;5567759;32;33629;-56
2023/05/03 13:34:53;;;;;;;10.18;5.65;;;;;;;19.34;70.80;100891.69;5566814;32;35161;-56
2023/05/03 13:37:56;;;;;;;12.57;5.90;;;;;;;19.37;71.88;100891.81;5568074;32;33267;-56
2023/05/03 13:40:58;;;;;;;12.70;5.78;;;;;;;19.40;71.54;100884.91;5567994;32;34295;-56
2023/05/03 13:44:01;;;;;;;9.02;5.70;;;;;;;19.44;71.29;100883.16;5549695;32;33944;-56
2023/05/03 13:47:03;;;;;;;7.07;5.80;;;;;;;19.32;72.73;100883.06;5555303;32;33308;-56
2023/05/03 13:50:06;;;;;;;8.15;5.82;;;;;;;19.42;72.85;100882.69;5558462;32;33305;-56
2023/05/03 13:53:09;;;;;;;11.18;5.80;;;;;;;19.46;72.66;100876.25;5565863;32;34424;-57
2023/05/03 13:56:12;;;;;;;6.87;6.15;;;;;;;19.57;71.38;100876.69;5568492;32;33414;-56
2023/05/03 13:59:15;;;;;;;10.40;5.47;;;;;;;19.56;71.82;100877.00;5563913;32;33263;-56
2023/05/03 14:02:17;;;;;;;10.77;5.53;;;;;;;19.58;71.03;100881.00;5549366;32;33665;-56
2023/05/03 14:05:20;;;;;;;7.78;5.82;;;;;;;19.61;69.05;100868.66;5549067;32;34306;-56
2023/05/03 14:08:22;;;;;;;11.55;5.57;;;;;;;19.70;71.27;100872.97;5552173;32;33532;-56
2023/05/03 14:11:24;;;;;;;7.55;5.28;;;;;;;19.72;71.57;100867.19;5568830;32;34219;-56
2023/05/03 14:14:29;;;;;;;7.03;5.22;;;;;;;19.76;69.31;100864.59;5566032;32;33655;-57
2023/05/03 14:17:32;;;;;;;7.72;5.47;;;;;;;19.75;69.42;100858.38;5549184;32;33722;-56
2023/05/03 14:20:34;;;;;;;6.43;5.15;;;;;;;19.70;68.86;100858.53;5565672;32;34264;-56
2023/05/03 14:23:38;;;;;;;11.15;5.60;;;;;;;19.55;71.62;100859.09;5568694;32;34001;-56
2023/05/03 14:26:40;;;;;;;6.93;5.55;;;;;;;19.51;68.53;100853.53;5568843;32;34009;-56
2023/05/03 14:29:43;;;;;;;12.82;5.32;;;;;;;19.48;69.38;100854.19;5555842;32;33677;-56
2023/05/03 14:32:46;;;;;;;7.68;5.53;;;;;;;19.57;69.51;100857.66;5549490;32;33606;-56
2023/05/03 14:35:48;;;;;;;7.97;5.57;;;;;;;19.60;68.95;100857.00;5549242;32;33704;-56
2023/05/03 14:38:50;;;;;;;6.90;5.10;;;;;;;19.65;68.21;100850.59;5555716;32;33877;-56
2023/05/03 14:41:53;;;;;;;5.43;4.80;;;;;;;19.73;71.28;100852.44;5558216;32;34342;-56
2023/05/03 14:44:58;;;;;;;10.18;5.65;;;;;;;19.75;66.96;100855.66;5562516;32;33428;-57
2023/05/03 14:48:00;;;;;;;8.48;5.05;;;;;;;19.64;69.77;100863.41;5562873;32;33220;-56
2023/05/03 14:51:03;;;;;;;6.90;5.30;;;;;;;19.62;69.00;100860.16;5559385;32;33677;-56
2023/05/03 14:54:05;;;;;;;6.87;5.12;;;;;;;19.49;69.15;100862.00;5549530;32;33742;-56
2023/05/03 14:57:08;;;;;;;6.55;4.80;;;;;;;19.47;69.30;100858.84;5556291;32;33789;-56
2023/05/03 15:00:13;;;;;;;5.90;5.30;;;;;;;19.52;69.92;100866.00;5549319;32;33701;-56
2023/05/03 15:03:16;;;;;;;7.07;5.15;;;;;;;19.44;68.67;100856.75;5549344;32;34295;-57
2023/05/03 15:06:24;;;;;;;7.62;5.00;;;;;;;19.46;69.70;100851.78;5555785;32;34418;-57
2023/05/03 15:09:27;;;;;;;6.95;4.97;;;;;;;19.29;67.61;100867.41;5568757;31;34317;-56
2023/05/03 15:12:30;;;;;;;7.10;4.82;;;;;;;19.28;69.33;100863.09;5568819;32;33724;-56
2023/05/03 15:15:33;;;;;;;6.85;5.07;;;;;;;19.30;70.34;100866.25;5567701;32;33660;-57
2023/05/03 15:18:35;;;;;;;6.70;5.18;;;;;;;19.36;74.04;100871.19;5549648;32;33568;-56
2023/05/03 15:21:48;;;;;;;7.22;4.70;;;;;;;19.26;70.66;100868.84;5548943;32;34351;-56
2023/05/03 15:24:51;;;;;;;8.15;5.10;;;;;;;19.32;71.77;100872.19;5549410;32;33259;-57
2023/05/03 15:27:53;;;;;;;5.22;4.72;;;;;;;19.28;71.48;100866.59;5563941;32;34292;-56
2023/05/03 15:30:55;;;;;;;6.87;5.30;;;;;;;19.29;71.42;100873.63;5568632;32;34418;-57
2023/05/03 15:33:57;;;;;;;6.18;4.60;;;;;;;19.22;73.10;100873.34;5568288;31;33677;-56
2023/05/03 15:37:03;;;;;;;;;;;;;;;19.28;71.25;100877.47;5567071;32;33682;-56
2023/05/03 15:40:09;;;;;;;5.70;4.80;;;;;;;19.20;71.87;100878.28;5568459;32;34685;-56
2023/05/03 15:43:12;;;;;;;6.75;4.57;;;;;;;19.14;72.70;100876.88;5565619;32;34325;-56
